createdAt,value
2022-09-07T00:00:41.778Z,20.02
2022-09-07T00:03:09.545Z,19.97
2022-09-07T00:05:42.645Z,19.92
2022-09-07T00:08:10.625Z,19.91
2022-09-07T00:10:38.430Z,19.87
2022-09-07T00:13:06.967Z,19.90
2022-09-07T00:15:35.153Z,19.87
2022-09-07T00:18:04.134Z,19.90
2022-09-07T00:20:31.720Z,19.92
2022-09-07T00:22:59.273Z,19.93
2022-09-07T00:25:26.969Z,19.94
2022-09-07T00:27:54.606Z,19.94
2022-09-07T00:30:22.216Z,19.94
2022-09-07T00:32:49.780Z,19.97
2022-09-07T00:35:19.231Z,19.93
2022-09-07T00:37:46.800Z,19.88
2022-09-07T00:40:14.448Z,19.84
2022-09-07T00:42:42.061Z,19.85
2022-09-07T00:45:15.951Z,19.74
2022-09-07T00:47:52.955Z,19.75
2022-09-07T00:50:27.380Z,19.77
2022-09-07T00:53:01.114Z,19.78
2022-09-07T00:55:30.420Z,19.78
2022-09-07T00:57:59.637Z,19.76
2022-09-07T01:00:28.130Z,19.73
2022-09-07T01:02:58.430Z,19.74
2022-09-07T01:05:32.245Z,19.73
2022-09-07T01:08:00.038Z,19.69
2022-09-07T01:10:31.550Z,19.60
2022-09-07T01:12:59.273Z,19.58
2022-09-07T01:15:40.523Z,19.61
2022-09-07T01:18:15.871Z,19.57
2022-09-07T01:21:11.410Z,19.57
2022-09-07T01:24:09.540Z,19.55
2022-09-07T01:27:22.512Z,19.43
2022-09-07T01:29:56.512Z,19.41
2022-09-07T01:32:36.425Z,19.34
2022-09-07T01:35:09.684Z,19.36
2022-09-07T01:37:48.985Z,19.31
2022-09-07T01:40:20.357Z,19.36
2022-09-07T01:42:55.214Z,19.31
2022-09-07T01:45:26.820Z,19.26
2022-09-07T01:47:57.768Z,19.29
2022-09-07T01:50:32.971Z,19.32
2022-09-07T01:53:07.165Z,19.26
2022-09-07T01:55:38.143Z,19.27
2022-09-07T01:58:11.226Z,19.23
2022-09-07T02:00:42.615Z,19.27
2022-09-07T02:03:15.722Z,19.25
2022-09-07T02:05:50.444Z,19.28
2022-09-07T02:08:21.719Z,19.23
2022-09-07T02:10:54.224Z,19.21
2022-09-07T02:13:27.171Z,19.19
2022-09-07T02:16:00.727Z,19.16
2022-09-07T02:18:36.057Z,19.11
2022-09-07T02:21:05.781Z,19.10
2022-09-07T02:23:46.345Z,19.05
2022-09-07T02:26:18.731Z,19.03
2022-09-07T02:28:48.452Z,19.00
2022-09-07T02:31:16.346Z,18.95
2022-09-07T02:33:44.357Z,18.95
2022-09-07T02:36:13.850Z,18.87
2022-09-07T02:38:43.712Z,18.93
2022-09-07T02:41:30.603Z,18.94
2022-09-07T02:44:01.736Z,18.89
2022-09-07T02:46:42.622Z,18.90
2022-09-07T02:49:21.753Z,18.88
2022-09-07T02:51:56.437Z,18.91
2022-09-07T02:54:40.406Z,18.95
2022-09-07T02:57:17.917Z,18.98
2022-09-07T02:59:56.565Z,18.93
2022-09-07T03:02:32.224Z,18.97
2022-09-07T03:05:06.051Z,18.97
2022-09-07T03:07:39.973Z,18.99
2022-09-07T03:10:14.238Z,19.02
2022-09-07T03:12:45.593Z,19.04
2022-09-07T03:15:16.377Z,19.06
2022-09-07T03:17:45.572Z,18.87
2022-09-07T03:20:13.892Z,18.85
2022-09-07T03:22:41.542Z,18.94
2022-09-07T03:25:10.004Z,18.90
2022-09-07T03:27:37.766Z,18.81
2022-09-07T03:30:07.038Z,18.86
2022-09-07T03:32:37.748Z,18.91
2022-09-07T03:35:07.356Z,18.99
2022-09-07T03:37:36.946Z,19.03
2022-09-07T03:40:05.852Z,19.04
2022-09-07T03:42:33.529Z,19.07
2022-09-07T03:45:01.113Z,19.10
2022-09-07T03:47:28.713Z,19.11
2022-09-07T03:49:57.614Z,19.12
2022-09-07T03:52:25.203Z,19.14
2022-09-07T03:54:52.855Z,19.14
2022-09-07T03:57:20.897Z,19.19
2022-09-07T03:59:49.817Z,19.23
2022-09-07T04:02:17.565Z,19.26
2022-09-07T04:04:46.920Z,19.28
2022-09-07T04:07:16.320Z,19.28
2022-09-07T04:09:44.040Z,19.26
2022-09-07T04:12:11.814Z,19.23
2022-09-07T04:14:39.431Z,19.22
2022-09-07T04:17:07.358Z,19.22
2022-09-07T04:19:34.998Z,19.21
2022-09-07T04:22:02.745Z,19.20
2022-09-07T04:24:31.825Z,19.23
2022-09-07T04:26:59.394Z,19.27
2022-09-07T04:29:27.022Z,19.32
2022-09-07T04:31:54.757Z,19.37
2022-09-07T04:34:22.701Z,19.42
2022-09-07T04:36:52.708Z,19.44
2022-09-07T04:39:20.290Z,19.46
2022-09-07T04:41:49.218Z,19.43
2022-09-07T04:44:17.341Z,19.39
2022-09-07T04:46:45.150Z,19.35
2022-09-07T04:49:13.645Z,19.34
2022-09-07T04:51:44.185Z,19.38
2022-09-07T04:54:12.647Z,19.35
2022-09-07T04:56:40.246Z,19.36
2022-09-07T04:59:09.175Z,19.34
2022-09-07T05:01:36.802Z,19.34
2022-09-07T05:04:04.883Z,19.35
2022-09-07T05:06:32.880Z,19.37
2022-09-07T05:09:01.202Z,19.39
2022-09-07T05:11:30.189Z,19.39
2022-09-07T05:13:58.284Z,19.39
2022-09-07T05:16:28.321Z,19.36
2022-09-07T05:18:57.721Z,19.35
2022-09-07T05:21:28.082Z,19.31
2022-09-07T05:23:58.033Z,19.24
2022-09-07T05:26:28.057Z,19.22
2022-09-07T05:31:45.115Z,19.27
2022-09-07T05:36:56.603Z,19.31
2022-09-07T05:39:24.686Z,19.38
2022-09-07T05:41:52.340Z,19.39
2022-09-07T05:47:09.358Z,19.43
2022-09-07T05:49:37.491Z,19.35
2022-09-07T05:52:05.131Z,19.31
2022-09-07T05:54:32.743Z,19.32
2022-09-07T05:57:00.370Z,19.34
2022-09-07T05:59:28.009Z,19.29
2022-09-07T06:01:55.779Z,19.28
2022-09-07T06:04:24.813Z,19.22
2022-09-07T06:07:18.059Z,19.15
2022-09-07T06:12:28.162Z,19.20
2022-09-07T06:14:55.795Z,19.17
2022-09-07T06:17:23.418Z,19.18
2022-09-07T06:19:54.802Z,19.25
2022-09-07T06:22:22.463Z,19.09
2022-09-07T06:24:50.114Z,19.04
2022-09-07T06:27:17.693Z,19.12
2022-09-07T06:29:45.325Z,19.15
2022-09-07T06:35:01.833Z,19.22
2022-09-07T06:37:29.506Z,19.06
2022-09-07T06:39:58.388Z,18.93
2022-09-07T06:42:26.012Z,19.02
2022-09-07T06:44:53.735Z,19.10
2022-09-07T06:47:21.351Z,19.14
2022-09-07T06:49:48.968Z,19.19
2022-09-07T06:52:20.453Z,19.25
2022-09-07T06:55:03.408Z,19.27
2022-09-07T06:57:31.121Z,19.08
2022-09-07T06:59:59.116Z,18.92
2022-09-07T07:02:26.748Z,19.02
2022-09-07T07:04:54.408Z,19.10
2022-09-07T07:07:23.421Z,19.09
2022-09-07T07:09:51.177Z,19.17
2022-09-07T07:14:45.419Z,19.34
2022-09-07T07:17:13.237Z,19.38
2022-09-07T07:19:40.898Z,19.45
2022-09-07T07:22:23.930Z,19.58
2022-09-07T07:24:57.419Z,19.66
2022-09-07T07:27:25.026Z,19.72
2022-09-07T07:29:53.782Z,19.72
2022-09-07T07:32:21.954Z,19.71
2022-09-07T07:34:49.510Z,19.55
2022-09-07T07:37:17.202Z,19.58
2022-09-07T07:42:35.427Z,19.85
2022-09-07T07:47:51.833Z,19.99
2022-09-07T07:50:34.946Z,20.06
2022-09-07T07:55:50.717Z,20.00
2022-09-07T07:58:20.411Z,19.95
2022-09-07T08:00:54.646Z,19.99
2022-09-07T08:03:24.168Z,20.05
2022-09-07T08:05:52.128Z,20.19
2022-09-07T08:08:19.815Z,20.32
2022-09-07T08:10:47.834Z,20.39
2022-09-07T08:13:16.268Z,20.47
2022-09-07T08:15:46.015Z,20.55
2022-09-07T08:18:14.278Z,20.62
2022-09-07T08:20:42.201Z,20.71
2022-09-07T08:23:10.601Z,20.77
2022-09-07T08:25:38.464Z,20.80
2022-09-07T08:28:06.436Z,20.76
2022-09-07T08:30:34.124Z,20.87
2022-09-07T08:33:03.021Z,20.86
2022-09-07T08:35:30.666Z,20.99
2022-09-07T08:37:58.260Z,21.10
2022-09-07T08:40:25.880Z,21.10
2022-09-07T08:43:04.282Z,21.00
2022-09-07T08:45:37.871Z,21.16
2022-09-07T08:48:06.858Z,21.19
2022-09-07T08:50:41.850Z,21.10
2022-09-07T08:53:13.856Z,21.16
2022-09-07T08:55:47.933Z,21.04
2022-09-07T08:58:45.254Z,21.16
2022-09-07T09:04:19.331Z,21.26
2022-09-07T09:07:03.117Z,21.29
2022-09-07T09:09:45.297Z,21.42
2022-09-07T09:12:25.417Z,21.54
2022-09-07T09:15:04.155Z,21.59
2022-09-07T09:17:38.949Z,21.68
2022-09-07T09:20:20.501Z,21.77
2022-09-07T09:22:48.857Z,21.81
2022-09-07T09:25:20.488Z,21.87
2022-09-07T09:27:49.084Z,21.86
2022-09-07T09:30:19.263Z,21.87
2022-09-07T09:32:48.738Z,21.91
2022-09-07T09:35:33.537Z,21.98
2022-09-07T09:38:03.425Z,22.13
2022-09-07T09:40:32.939Z,22.18
2022-09-07T09:43:03.533Z,22.23
2022-09-07T09:48:33.869Z,22.05
2022-09-07T09:53:57.649Z,22.12
2022-09-07T09:56:38.956Z,22.33
2022-09-07T10:05:26.768Z,22.46
2022-09-07T10:07:56.236Z,22.43
2022-09-07T10:10:24.057Z,22.40
2022-09-07T10:12:57.913Z,22.39
2022-09-07T10:15:30.129Z,22.35
2022-09-07T10:17:59.081Z,22.48
2022-09-07T10:20:36.087Z,22.52
2022-09-07T10:23:07.080Z,22.63
2022-09-07T10:25:37.175Z,22.74
2022-09-07T10:28:15.070Z,22.77
2022-09-07T10:30:56.673Z,22.77
2022-09-07T10:33:31.706Z,22.83
2022-09-07T10:36:06.549Z,22.88
2022-09-07T10:38:41.979Z,22.89
2022-09-07T10:41:12.091Z,22.95
2022-09-07T10:43:44.227Z,23.05
2022-09-07T10:49:18.001Z,23.17
2022-09-07T10:51:58.929Z,23.21
2022-09-07T10:54:37.568Z,23.19
2022-09-07T10:57:20.611Z,23.15
2022-09-07T11:00:13.232Z,23.13
2022-09-07T11:06:07.104Z,23.29
2022-09-07T11:14:32.423Z,23.39
2022-09-07T11:17:04.378Z,23.38
2022-09-07T11:19:37.488Z,23.42
2022-09-07T11:22:17.010Z,23.40
2022-09-07T11:25:29.176Z,23.35
2022-09-07T11:27:43.503Z,23.40
2022-09-07T11:30:20.423Z,23.46
2022-09-07T11:32:55.364Z,23.51
2022-09-07T11:35:32.799Z,23.68
2022-09-07T11:38:10.194Z,23.82
2022-09-07T11:40:44.470Z,24.03
2022-09-07T11:43:22.375Z,24.20
2022-09-07T11:45:54.962Z,24.31
2022-09-07T11:48:30.420Z,24.40
2022-09-07T11:51:02.025Z,24.53
2022-09-07T11:53:33.797Z,24.55
2022-09-07T11:56:05.528Z,24.59
2022-09-07T11:58:55.217Z,24.67
2022-09-07T12:01:34.795Z,24.75
2022-09-07T12:04:27.466Z,24.81
2022-09-07T12:07:18.418Z,24.84
2022-09-07T12:10:10.860Z,24.89
2022-09-07T12:13:02.327Z,25.03
2022-09-07T12:15:43.281Z,25.22
2022-09-07T12:18:25.644Z,25.32
2022-09-07T12:20:53.429Z,25.41
2022-09-07T12:23:30.232Z,25.55
2022-09-07T12:26:35.408Z,25.68
2022-09-07T12:29:20.451Z,25.59
2022-09-07T12:32:00.064Z,25.48
2022-09-07T12:35:00.406Z,25.68
2022-09-07T12:37:38.150Z,25.83
2022-09-07T12:40:44.642Z,25.85
2022-09-07T12:43:52.750Z,26.05
2022-09-07T12:46:42.029Z,26.17
2022-09-07T12:49:32.450Z,26.33
2022-09-07T12:52:15.398Z,25.98
2022-09-07T12:55:10.073Z,25.90
2022-09-07T12:57:46.299Z,25.86
2022-09-07T13:00:19.740Z,26.09
2022-09-07T13:03:49.363Z,26.25
2022-09-07T13:06:06.328Z,26.43
2022-09-07T13:09:02.307Z,26.44
2022-09-07T13:11:37.523Z,26.29
2022-09-07T13:14:09.487Z,26.46
2022-09-07T13:20:01.139Z,26.76
2022-09-07T13:22:56.159Z,26.99
2022-09-07T13:25:46.639Z,27.21
2022-09-07T13:28:26.033Z,27.29
2022-09-07T13:31:05.902Z,27.38
2022-09-07T13:33:49.263Z,27.54
2022-09-07T13:36:25.526Z,27.57
2022-09-07T13:38:56.000Z,27.64
2022-09-07T13:41:27.136Z,27.51
2022-09-07T13:44:00.179Z,27.74
2022-09-07T13:46:38.375Z,27.72
2022-09-07T13:49:17.706Z,27.69
2022-09-07T13:51:53.050Z,27.71
2022-09-07T13:54:29.826Z,27.54
2022-09-07T13:57:05.439Z,27.42
2022-09-07T13:59:35.763Z,27.48
2022-09-07T14:02:03.956Z,27.38
2022-09-07T14:04:36.179Z,27.46
2022-09-07T14:07:06.643Z,27.60
2022-09-07T14:09:35.926Z,27.83
2022-09-07T14:12:05.472Z,27.86
2022-09-07T14:14:33.397Z,27.85
2022-09-07T14:17:05.322Z,27.74
2022-09-07T14:19:39.128Z,27.42
2022-09-07T14:22:11.966Z,27.18
2022-09-07T14:24:42.803Z,27.16
2022-09-07T14:27:21.799Z,27.15
2022-09-07T14:29:49.609Z,27.14
2022-09-07T14:32:21.260Z,27.10
2022-09-07T14:34:50.142Z,27.09
2022-09-07T14:37:21.215Z,27.01
2022-09-07T14:39:52.678Z,26.87
2022-09-07T14:42:23.571Z,26.73
2022-09-07T14:44:54.212Z,26.63
2022-09-07T14:47:29.288Z,26.56
2022-09-07T14:50:05.570Z,26.59
2022-09-07T14:52:42.404Z,26.55
2022-09-07T14:55:29.135Z,26.53
2022-09-07T14:58:22.944Z,26.54
2022-09-07T15:03:56.171Z,26.52
2022-09-07T15:09:30.731Z,26.51
2022-09-07T15:12:19.043Z,26.45
2022-09-07T15:14:48.214Z,26.44
2022-09-07T15:20:36.935Z,26.49
2022-09-07T15:23:06.198Z,26.47
2022-09-07T15:25:35.908Z,26.43
2022-09-07T15:28:05.601Z,26.40
2022-09-07T15:30:34.030Z,26.42
2022-09-07T15:33:01.920Z,26.47
2022-09-07T15:35:29.525Z,26.40
2022-09-07T15:38:05.474Z,26.37
2022-09-07T15:40:51.503Z,26.41
2022-09-07T15:43:30.558Z,26.27
2022-09-07T15:45:58.380Z,26.21
2022-09-07T15:48:26.261Z,26.19
2022-09-07T15:51:02.541Z,26.15
2022-09-07T15:56:20.125Z,26.16
2022-09-07T15:58:53.718Z,26.11
2022-09-07T16:04:14.627Z,26.02
2022-09-07T16:06:42.459Z,25.94
2022-09-07T16:09:10.080Z,25.85
2022-09-07T16:11:37.714Z,25.78
2022-09-07T16:14:06.772Z,25.77
2022-09-07T16:19:22.187Z,25.68
2022-09-07T16:21:49.827Z,25.61
2022-09-07T16:24:17.731Z,25.60
2022-09-07T16:26:45.370Z,25.60
2022-09-07T16:29:15.311Z,25.58
2022-09-07T16:34:30.634Z,25.52
2022-09-07T16:36:58.231Z,25.48
2022-09-07T16:39:25.890Z,25.46
2022-09-07T16:41:53.695Z,25.42
2022-09-07T16:44:22.898Z,25.41
2022-09-07T16:46:50.780Z,25.41
2022-09-07T16:49:19.683Z,25.37
2022-09-07T16:51:50.077Z,25.36
2022-09-07T16:54:18.201Z,25.31
2022-09-07T16:56:45.795Z,25.27
2022-09-07T16:59:16.900Z,25.23
2022-09-07T17:01:45.975Z,25.19
2022-09-07T17:04:13.723Z,25.17
2022-09-07T17:06:41.491Z,25.16
2022-09-07T17:09:09.280Z,25.14
2022-09-07T17:11:37.721Z,25.07
2022-09-07T17:14:06.643Z,25.02
2022-09-07T17:16:40.151Z,25.00
2022-09-07T17:22:00.625Z,24.95
2022-09-07T17:24:28.454Z,24.91
2022-09-07T17:26:56.703Z,24.90
2022-09-07T17:29:24.634Z,24.89
2022-09-07T17:34:46.693Z,24.79
2022-09-07T17:37:14.309Z,24.75
2022-09-07T17:39:42.161Z,24.73
2022-09-07T17:42:09.930Z,24.72
2022-09-07T17:44:38.469Z,24.69
2022-09-07T17:47:06.880Z,24.66
2022-09-07T17:49:34.721Z,24.65
2022-09-07T17:52:04.208Z,24.67
2022-09-07T17:54:32.747Z,24.70
2022-09-07T17:57:00.688Z,24.71
2022-09-07T18:02:16.179Z,24.75
2022-09-07T18:04:43.909Z,24.75
2022-09-07T18:07:13.143Z,24.70
2022-09-07T18:09:41.847Z,24.67
2022-09-07T18:12:09.726Z,24.61
2022-09-07T18:14:37.538Z,24.53
2022-09-07T18:17:06.164Z,24.49
2022-09-07T18:19:33.869Z,24.40
2022-09-07T18:22:03.906Z,24.30
2022-09-07T18:24:36.758Z,24.25
2022-09-07T18:27:07.917Z,24.20
2022-09-07T18:29:35.689Z,24.16
2022-09-07T18:32:08.181Z,24.10
2022-09-07T18:34:37.321Z,24.07
2022-09-07T18:37:05.152Z,24.06
2022-09-07T18:39:35.470Z,24.04
2022-09-07T18:42:03.342Z,24.01
2022-09-07T18:47:27.549Z,23.92
2022-09-07T18:49:56.207Z,23.84
2022-09-07T18:55:12.894Z,23.84
2022-09-07T18:57:40.458Z,23.83
2022-09-07T19:00:09.991Z,23.80
2022-09-07T19:02:38.078Z,23.77
2022-09-07T19:07:54.198Z,23.69
2022-09-07T19:10:23.194Z,23.63
2022-09-07T19:12:50.883Z,23.61
2022-09-07T19:15:20.325Z,23.61
2022-09-07T19:17:48.014Z,23.65
2022-09-07T19:20:15.729Z,23.64
2022-09-07T19:22:43.612Z,23.58
2022-09-07T19:25:11.358Z,23.56
2022-09-07T19:27:40.287Z,23.52
2022-09-07T19:30:09.095Z,23.52
2022-09-07T19:32:37.010Z,23.49
2022-09-07T19:35:05.113Z,23.44
2022-09-07T19:37:32.825Z,23.45
2022-09-07T19:40:01.215Z,23.46
2022-09-07T19:42:29.493Z,23.36
2022-09-07T19:44:58.697Z,23.33
2022-09-07T19:47:26.671Z,23.26
2022-09-07T19:49:54.325Z,23.23
2022-09-07T19:52:21.913Z,23.12
2022-09-07T19:54:49.486Z,23.07
2022-09-07T19:57:17.167Z,23.02
2022-09-07T19:59:45.584Z,22.95
2022-09-07T20:02:14.514Z,22.90
2022-09-07T20:04:42.121Z,22.92
2022-09-07T20:07:09.750Z,22.89
2022-09-07T20:09:37.375Z,22.87
2022-09-07T20:12:06.708Z,22.79
2022-09-07T20:14:34.413Z,22.79
2022-09-07T20:17:02.317Z,22.82
2022-09-07T20:19:31.326Z,22.84
2022-09-07T20:21:58.945Z,22.85
2022-09-07T20:24:26.618Z,22.85
2022-09-07T20:26:54.265Z,22.86
2022-09-07T20:29:29.404Z,22.85
2022-09-07T20:31:58.343Z,22.82
2022-09-07T20:34:26.490Z,22.74
2022-09-07T20:36:56.855Z,22.69
2022-09-07T20:39:24.547Z,22.64
2022-09-07T20:41:52.260Z,22.58
2022-09-07T20:44:20.053Z,22.56
2022-09-07T20:46:47.770Z,22.53
2022-09-07T20:49:15.457Z,22.49
2022-09-07T20:51:43.172Z,22.49
2022-09-07T20:54:12.240Z,22.50
2022-09-07T20:56:39.831Z,22.51
2022-09-07T20:59:07.749Z,22.44
2022-09-07T21:01:36.527Z,22.38
2022-09-07T21:04:06.013Z,22.36
2022-09-07T21:06:33.801Z,22.38
2022-09-07T21:09:03.786Z,22.42
2022-09-07T21:11:34.582Z,22.48
2022-09-07T21:14:05.988Z,22.50
2022-09-07T21:16:34.314Z,22.50
2022-09-07T21:19:03.405Z,22.43
2022-09-07T21:21:38.990Z,22.39
2022-09-07T21:24:08.368Z,22.39
2022-09-07T21:26:37.283Z,22.35
2022-09-07T21:29:05.899Z,22.33
2022-09-07T21:31:34.437Z,22.33
2022-09-07T21:34:03.324Z,22.28
2022-09-07T21:36:30.984Z,22.24
2022-09-07T21:38:58.661Z,22.14
2022-09-07T21:41:26.706Z,22.07
2022-09-07T21:44:00.243Z,22.01
2022-09-07T21:46:29.392Z,21.87
2022-09-07T21:48:58.525Z,21.87
2022-09-07T21:51:27.281Z,21.71
2022-09-07T21:53:56.310Z,21.73
2022-09-07T21:56:24.696Z,21.74
2022-09-07T21:58:54.940Z,21.73
2022-09-07T22:01:25.396Z,21.75
2022-09-07T22:03:55.870Z,21.71
2022-09-07T22:06:24.057Z,21.67
2022-09-07T22:08:51.841Z,21.65
2022-09-07T22:11:21.563Z,21.69
2022-09-07T22:13:49.589Z,21.66
2022-09-07T22:16:17.236Z,21.61
2022-09-07T22:18:46.989Z,21.54
2022-09-07T22:21:16.745Z,21.51
2022-09-07T22:23:46.828Z,21.50
2022-09-07T22:26:15.685Z,21.49
2022-09-07T22:28:43.323Z,21.43
2022-09-07T22:31:13.645Z,21.36
2022-09-07T22:33:41.777Z,21.28
2022-09-07T22:36:14.070Z,21.27
2022-09-07T22:38:41.732Z,21.28
2022-09-07T22:41:11.402Z,21.33
2022-09-07T22:43:39.393Z,21.32
2022-09-07T22:46:07.384Z,21.33
2022-09-07T22:48:35.044Z,21.36
2022-09-07T22:51:03.984Z,21.34
2022-09-07T22:53:35.419Z,21.31
2022-09-07T22:56:07.237Z,21.30
2022-09-07T22:58:34.949Z,21.24
2022-09-07T23:01:02.642Z,21.26
2022-09-07T23:03:30.907Z,21.23
2022-09-07T23:05:58.711Z,21.19
2022-09-07T23:08:26.276Z,21.17
2022-09-07T23:10:55.185Z,21.16
2022-09-07T23:13:23.045Z,21.15
2022-09-07T23:15:50.626Z,21.12
2022-09-07T23:18:22.248Z,21.08
2022-09-07T23:20:50.164Z,21.08
2022-09-07T23:23:17.951Z,21.08
2022-09-07T23:25:45.622Z,21.12
2022-09-07T23:28:14.580Z,21.10
2022-09-07T23:30:47.499Z,21.06
2022-09-07T23:33:15.158Z,21.08
2022-09-07T23:35:43.288Z,21.09
2022-09-07T23:38:11.039Z,21.06
2022-09-07T23:40:39.057Z,21.00
2022-09-07T23:43:06.620Z,20.97
2022-09-07T23:45:35.572Z,20.92
2022-09-07T23:48:03.510Z,20.88
2022-09-07T23:50:31.069Z,20.88
2022-09-07T23:52:58.670Z,20.85
2022-09-07T23:55:26.343Z,20.83
2022-09-07T23:57:53.923Z,20.80
